createdAt,value
2016-10-19T00:00:28.092Z,0
2016-10-19T00:01:43.029Z,0
2016-10-19T00:02:28.132Z,0
2016-10-19T00:03:28.206Z,0
2016-10-19T00:04:28.179Z,0
2016-10-19T00:05:28.206Z,0
2016-10-19T00:06:43.149Z,0
2016-10-19T00:07:28.241Z,0
2016-10-19T00:08:28.262Z,0
2016-10-19T00:09:28.287Z,0
2016-10-19T00:10:28.315Z,0
2016-10-19T00:11:28.336Z,0
2016-10-19T00:12:43.268Z,0
2016-10-19T00:13:28.384Z,0
2016-10-19T00:15:43.372Z,0
2016-10-19T00:16:28.435Z,0
2016-10-19T00:17:28.468Z,0
2016-10-19T00:18:43.398Z,0
2016-10-19T00:19:28.500Z,0
2016-10-19T00:20:28.531Z,0
2016-10-19T00:21:28.543Z,0
2016-10-19T00:22:28.570Z,0
2016-10-19T00:23:28.593Z,0
2016-10-19T00:24:28.607Z,0
2016-10-19T00:25:28.632Z,0
2016-10-19T00:26:28.654Z,0
2016-10-19T00:27:28.680Z,0
2016-10-19T00:28:43.624Z,0
2016-10-19T00:29:28.722Z,0
2016-10-19T00:30:28.745Z,0
2016-10-19T00:31:43.683Z,0
2016-10-19T00:32:28.787Z,0
2016-10-19T00:33:28.815Z,0
2016-10-19T00:34:28.833Z,0
2016-10-19T00:35:28.852Z,0
2016-10-19T00:36:44.096Z,0
2016-10-19T00:37:28.898Z,0
2016-10-19T00:38:58.760Z,0
2016-10-19T00:39:28.944Z,0
2016-10-19T00:40:28.971Z,0
2016-10-19T00:41:29.024Z,0
2016-10-19T00:43:29.064Z,0
2016-10-19T00:44:29.049Z,0
2016-10-19T00:45:43.986Z,0
2016-10-19T00:46:29.099Z,0
2016-10-19T00:47:29.111Z,0
2016-10-19T00:48:44.057Z,0
2016-10-19T00:49:29.159Z,0
2016-10-19T00:50:29.189Z,0
2016-10-19T00:51:29.205Z,0
2016-10-19T00:52:29.231Z,0
2016-10-19T00:53:29.257Z,0
2016-10-19T00:54:44.188Z,0
2016-10-19T00:55:29.301Z,0
2016-10-19T00:56:29.323Z,0
2016-10-19T00:57:29.338Z,0
2016-10-19T00:58:29.366Z,0
2016-10-19T00:59:29.373Z,0
2016-10-19T01:00:29.416Z,0
2016-10-19T01:01:29.427Z,0
2016-10-19T01:02:29.445Z,0
2016-10-19T01:03:29.518Z,0
2016-10-19T01:04:29.637Z,0
2016-10-19T01:05:29.508Z,0
2016-10-19T01:06:29.529Z,0
2016-10-19T01:07:29.551Z,0
2016-10-19T01:08:29.571Z,0
2016-10-19T01:10:44.539Z,0
2016-10-19T01:11:29.639Z,0
2016-10-19T01:12:29.662Z,0
2016-10-19T01:13:44.907Z,0
2016-10-19T01:14:29.702Z,0
2016-10-19T01:15:44.652Z,0
2016-10-19T01:16:44.669Z,0
2016-10-19T01:17:29.770Z,0
2016-10-19T01:18:29.794Z,0
2016-10-19T01:19:29.827Z,0
2016-10-19T01:20:29.836Z,0
2016-10-19T01:22:29.887Z,0
2016-10-19T01:23:29.901Z,0
2016-10-19T01:24:29.929Z,0
2016-10-19T01:25:29.952Z,0
2016-10-19T01:26:44.886Z,0
2016-10-19T01:27:44.913Z,0
2016-10-19T01:28:30.014Z,0
2016-10-19T01:29:30.045Z,0
2016-10-19T01:30:30.312Z,0
2016-10-19T01:31:30.078Z,0
2016-10-19T01:32:45.016Z,0
2016-10-19T01:33:30.132Z,0
2016-10-19T01:34:30.148Z,0
2016-10-19T01:35:30.162Z,0
2016-10-19T01:36:30.189Z,0
2016-10-19T01:37:30.211Z,0
2016-10-19T01:38:45.150Z,0
2016-10-19T01:39:30.259Z,0
2016-10-19T01:40:45.247Z,0
2016-10-19T01:41:45.219Z,0
2016-10-19T01:42:30.315Z,0
2016-10-19T01:43:45.263Z,0
2016-10-19T01:44:30.358Z,0
2016-10-19T01:45:30.435Z,0
2016-10-19T01:46:45.323Z,0
2016-10-19T01:47:30.437Z,0
2016-10-19T01:48:30.487Z,0
2016-10-19T01:49:45.642Z,0
2016-10-19T01:50:30.491Z,0
2016-10-19T01:51:30.514Z,0
2016-10-19T01:52:30.546Z,0
2016-10-19T01:53:30.560Z,0
2016-10-19T01:54:30.611Z,0
2016-10-19T01:55:30.602Z,0
2016-10-19T01:56:30.926Z,0
2016-10-19T01:57:30.643Z,0
2016-10-19T01:58:30.666Z,0
2016-10-19T01:59:30.694Z,0
2016-10-19T02:00:30.709Z,0
2016-10-19T02:01:30.764Z,0
2016-10-19T02:02:30.750Z,0
2016-10-19T02:03:45.700Z,0
2016-10-19T02:04:30.833Z,0
2016-10-19T02:06:30.847Z,0
2016-10-19T02:07:30.912Z,0
2016-10-19T02:08:30.937Z,0
2016-10-19T02:09:30.907Z,0
2016-10-19T02:10:30.938Z,0
2016-10-19T02:11:30.960Z,0
2016-10-19T02:12:30.985Z,0
2016-10-19T02:13:45.912Z,0
2016-10-19T02:14:31.014Z,0
2016-10-19T02:15:31.078Z,0
2016-10-19T02:16:31.065Z,0
2016-10-19T02:17:31.087Z,0
2016-10-19T02:19:31.128Z,0
2016-10-19T02:20:31.185Z,0
2016-10-19T02:21:31.176Z,0
2016-10-19T02:22:46.112Z,0
2016-10-19T02:23:31.218Z,0
2016-10-19T02:24:46.152Z,0
2016-10-19T02:25:31.284Z,0
2016-10-19T02:26:31.280Z,0
2016-10-19T02:27:31.308Z,0
2016-10-19T02:28:31.352Z,0
2016-10-19T02:29:46.269Z,0
2016-10-19T02:30:31.374Z,0
2016-10-19T02:31:31.386Z,0
2016-10-19T02:33:31.434Z,0
2016-10-19T02:34:31.453Z,0
2016-10-19T02:35:31.479Z,0
2016-10-19T02:36:31.510Z,0
2016-10-19T02:37:31.522Z,0
2016-10-19T02:38:31.539Z,0
2016-10-19T02:39:31.567Z,0
2016-10-19T02:40:31.585Z,0
2016-10-19T02:41:31.612Z,0
2016-10-19T02:42:31.629Z,0
2016-10-19T02:43:46.673Z,0
2016-10-19T02:44:31.922Z,0
2016-10-19T02:45:46.611Z,0
2016-10-19T02:46:31.718Z,0
2016-10-19T02:47:31.735Z,0
2016-10-19T02:48:31.761Z,0
2016-10-19T02:49:31.784Z,0
2016-10-19T02:50:46.722Z,0
2016-10-19T02:51:31.840Z,0
2016-10-19T02:52:32.101Z,0
2016-10-19T02:54:46.821Z,0
2016-10-19T02:55:31.913Z,0
2016-10-19T02:56:32.232Z,0
2016-10-19T02:57:31.957Z,0
2016-10-19T02:58:46.898Z,0
2016-10-19T02:59:32.004Z,0
2016-10-19T03:00:32.020Z,0
2016-10-19T03:01:46.970Z,0
2016-10-19T03:02:32.064Z,0
2016-10-19T03:03:32.089Z,0
2016-10-19T03:04:47.032Z,0
2016-10-19T03:05:32.125Z,0
2016-10-19T03:06:32.160Z,0
2016-10-19T03:07:32.186Z,0
2016-10-19T03:08:32.208Z,0
2016-10-19T03:09:32.229Z,0
2016-10-19T03:11:32.272Z,0
2016-10-19T03:12:32.292Z,0
2016-10-19T03:13:32.348Z,0
2016-10-19T03:14:32.327Z,0
2016-10-19T03:15:32.357Z,0
2016-10-19T03:16:47.292Z,0
2016-10-19T03:17:47.321Z,0
2016-10-19T03:18:32.414Z,0
2016-10-19T03:19:32.447Z,0
2016-10-19T03:20:32.468Z,0
2016-10-19T03:21:32.558Z,0
2016-10-19T03:23:32.529Z,0
2016-10-19T03:25:32.822Z,0
2016-10-19T03:26:32.638Z,0
2016-10-19T03:27:47.535Z,0
2016-10-19T03:28:32.643Z,0
2016-10-19T03:29:32.666Z,0
2016-10-19T03:30:32.681Z,0
2016-10-19T03:31:32.707Z,0
2016-10-19T03:33:32.749Z,0
2016-10-19T03:35:47.712Z,0
2016-10-19T03:36:32.808Z,0
2016-10-19T03:38:32.865Z,0
2016-10-19T03:39:32.886Z,0
2016-10-19T03:40:32.904Z,0
2016-10-19T03:41:47.841Z,0
2016-10-19T03:42:32.955Z,0
2016-10-19T03:43:32.971Z,0
2016-10-19T03:44:47.912Z,0
2016-10-19T03:45:47.926Z,0
2016-10-19T03:46:33.032Z,0
2016-10-19T03:47:33.096Z,0
2016-10-19T03:50:33.122Z,0
2016-10-19T03:51:33.140Z,0
2016-10-19T03:52:33.418Z,0
2016-10-19T03:53:33.194Z,0
2016-10-19T03:54:33.212Z,0
2016-10-19T03:55:33.239Z,0
2016-10-19T03:56:33.248Z,0
2016-10-19T03:58:33.297Z,0
2016-10-19T03:59:33.321Z,0
2016-10-19T04:00:33.335Z,0
2016-10-19T04:01:48.527Z,0
2016-10-19T04:02:33.381Z,0
2016-10-19T04:03:33.441Z,0
2016-10-19T04:04:48.343Z,0
2016-10-19T04:05:33.456Z,0
2016-10-19T04:06:33.476Z,0
2016-10-19T04:07:33.536Z,0
2016-10-19T04:08:48.432Z,0
2016-10-19T04:09:33.541Z,0
2016-10-19T04:10:48.482Z,0
2016-10-19T04:11:33.577Z,0
2016-10-19T04:12:48.527Z,0
2016-10-19T04:14:33.644Z,0
2016-10-19T04:15:33.673Z,0
2016-10-19T04:16:33.692Z,0
2016-10-19T04:17:33.722Z,0
2016-10-19T04:18:48.656Z,0
2016-10-19T04:19:48.677Z,0
2016-10-19T04:20:48.692Z,0
2016-10-19T04:21:33.801Z,0
2016-10-19T04:22:48.739Z,0
2016-10-19T04:23:33.853Z,0
2016-10-19T04:24:33.860Z,0
2016-10-19T04:25:33.891Z,0
2016-10-19T04:26:33.908Z,0
2016-10-19T04:27:33.926Z,0
2016-10-19T04:28:33.961Z,0
2016-10-19T04:29:33.967Z,0
2016-10-19T04:30:34.032Z,0
2016-10-19T04:31:34.017Z,0
2016-10-19T04:32:48.954Z,0
2016-10-19T04:33:34.062Z,0
2016-10-19T04:34:34.085Z,0
2016-10-19T04:35:34.101Z,0
2016-10-19T04:36:49.042Z,0
2016-10-19T04:37:49.069Z,0
2016-10-19T04:38:34.162Z,0
2016-10-19T04:39:34.190Z,0
2016-10-19T04:40:34.211Z,0
2016-10-19T04:41:34.237Z,0
2016-10-19T04:42:34.294Z,0
2016-10-19T04:43:34.281Z,0
2016-10-19T04:45:34.323Z,0
2016-10-19T04:46:34.381Z,0
2016-10-19T04:47:34.372Z,0
2016-10-19T04:48:49.304Z,0
2016-10-19T04:49:34.409Z,0
2016-10-19T04:50:34.438Z,0
2016-10-19T04:51:49.375Z,0
2016-10-19T04:52:34.474Z,0
2016-10-19T04:53:34.507Z,0
2016-10-19T04:54:34.519Z,0
2016-10-19T04:55:34.542Z,0
2016-10-19T04:56:49.478Z,0
2016-10-19T04:57:34.584Z,0
2016-10-19T04:58:34.601Z,0
2016-10-19T05:00:49.570Z,0
2016-10-19T05:01:34.684Z,0
2016-10-19T05:02:34.702Z,0
2016-10-19T05:03:34.738Z,0
2016-10-19T05:04:34.733Z,0
2016-10-19T05:05:34.762Z,0
2016-10-19T05:06:49.703Z,0
2016-10-19T05:07:34.808Z,0
2016-10-19T05:08:49.742Z,0
2016-10-19T05:09:34.838Z,0
2016-10-19T05:10:34.881Z,0
2016-10-19T05:11:49.809Z,0
2016-10-19T05:12:34.951Z,0
2016-10-19T05:13:34.937Z,4
2016-10-19T05:14:35.257Z,4
2016-10-19T05:15:34.974Z,0
2016-10-19T05:16:49.911Z,4
2016-10-19T05:17:35.020Z,4
2016-10-19T05:18:49.955Z,4
2016-10-19T05:20:35.083Z,4
2016-10-19T05:21:35.111Z,4
2016-10-19T05:22:35.129Z,4
2016-10-19T05:23:50.068Z,8
2016-10-19T05:24:35.168Z,8
2016-10-19T05:25:35.196Z,4
2016-10-19T05:26:35.251Z,8
2016-10-19T05:27:35.241Z,12
2016-10-19T05:29:05.091Z,12
2016-10-19T05:29:35.579Z,12
2016-10-19T05:30:35.304Z,16
2016-10-19T05:31:50.245Z,16
2016-10-19T05:32:35.354Z,16
2016-10-19T05:34:35.388Z,20
2016-10-19T05:35:35.415Z,28
2016-10-19T05:36:35.435Z,32
2016-10-19T05:37:35.453Z,28
2016-10-19T05:38:35.485Z,24
2016-10-19T05:39:50.421Z,24
2016-10-19T05:40:35.535Z,28
2016-10-19T05:41:35.575Z,32
2016-10-19T05:42:35.566Z,32
2016-10-19T05:43:35.584Z,32
2016-10-19T05:44:35.612Z,40
2016-10-19T05:45:50.549Z,40
2016-10-19T05:46:35.649Z,40
2016-10-19T05:47:35.671Z,44
2016-10-19T05:48:35.695Z,40
2016-10-19T05:49:35.710Z,40
2016-10-19T05:50:50.653Z,40
2016-10-19T05:51:35.759Z,36
2016-10-19T05:52:50.694Z,32
2016-10-19T05:54:50.745Z,36
2016-10-19T05:55:50.762Z,32
2016-10-19T05:56:35.862Z,36
2016-10-19T05:57:35.936Z,36
2016-10-19T05:58:35.899Z,36
2016-10-19T05:59:35.927Z,32
2016-10-19T06:00:35.958Z,32
2016-10-19T06:01:35.973Z,32
2016-10-19T06:02:35.994Z,28
2016-10-19T06:03:36.030Z,28
2016-10-19T06:04:36.049Z,28
2016-10-19T06:05:36.062Z,32
2016-10-19T06:06:51.002Z,36
2016-10-19T06:07:36.108Z,40
2016-10-19T06:08:36.128Z,40
2016-10-19T06:09:36.143Z,48
2016-10-19T06:10:36.170Z,52
2016-10-19T06:11:51.114Z,60
2016-10-19T06:12:36.213Z,68
2016-10-19T06:13:37.239Z,68
2016-10-19T06:14:36.256Z,80
2016-10-19T06:15:36.280Z,84
2016-10-19T06:16:36.315Z,88
2016-10-19T06:17:51.239Z,80
2016-10-19T06:19:36.360Z,56
2016-10-19T06:20:36.653Z,64
2016-10-19T06:22:36.430Z,88
2016-10-19T06:23:36.457Z,100
2016-10-19T06:24:36.484Z,96
2016-10-19T06:25:36.494Z,108
2016-10-19T06:26:51.437Z,160
2016-10-19T06:27:36.543Z,168
2016-10-19T06:28:51.485Z,180
2016-10-19T06:29:36.579Z,168
2016-10-19T06:30:36.606Z,164
2016-10-19T06:31:36.628Z,168
2016-10-19T06:32:36.653Z,172
2016-10-19T06:33:51.588Z,180
2016-10-19T06:34:36.698Z,172
2016-10-19T06:35:36.713Z,176
2016-10-19T06:36:36.739Z,172
2016-10-19T06:37:51.675Z,164
2016-10-19T06:38:36.782Z,160
2016-10-19T06:39:36.808Z,172
2016-10-19T06:40:36.823Z,156
2016-10-19T06:41:36.849Z,160
2016-10-19T06:42:36.866Z,152
2016-10-19T06:43:36.882Z,156
2016-10-19T06:44:37.220Z,160
2016-10-19T06:45:36.936Z,164
2016-10-19T06:46:36.953Z,204
2016-10-19T06:47:51.891Z,252
2016-10-19T06:48:37.249Z,284
2016-10-19T06:50:37.036Z,344
2016-10-19T06:51:37.066Z,332
2016-10-19T06:52:37.083Z,340
2016-10-19T06:53:37.107Z,384
2016-10-19T06:54:37.124Z,436
2016-10-19T06:55:52.109Z,500
2016-10-19T06:56:37.173Z,544
2016-10-19T06:57:37.194Z,604
2016-10-19T06:58:52.433Z,700
2016-10-19T06:59:37.232Z,756
2016-10-19T07:00:37.293Z,804
2016-10-19T07:01:37.279Z,836
2016-10-19T07:02:37.303Z,892
2016-10-19T07:03:37.327Z,936
2016-10-19T07:05:37.364Z,972
2016-10-19T07:06:37.391Z,940
2016-10-19T07:07:52.365Z,976
2016-10-19T07:08:37.422Z,960
2016-10-19T07:09:37.450Z,968
2016-10-19T07:10:52.381Z,1000
2016-10-19T07:11:37.489Z,1016
2016-10-19T07:12:37.518Z,1048
2016-10-19T07:13:37.544Z,1024
2016-10-19T07:14:52.478Z,1076
2016-10-19T07:15:37.585Z,1076
2016-10-19T07:16:37.638Z,1032
2016-10-19T07:17:37.620Z,1008
2016-10-19T07:18:52.560Z,956
2016-10-19T07:19:37.665Z,976
2016-10-19T07:20:37.679Z,920
2016-10-19T07:21:37.710Z,888
2016-10-19T07:22:52.652Z,832
2016-10-19T07:23:37.999Z,836
2016-10-19T07:24:38.082Z,864
2016-10-19T07:25:37.805Z,928
2016-10-19T07:26:52.733Z,972
2016-10-19T07:27:37.839Z,928
2016-10-19T07:28:37.859Z,1004
2016-10-19T07:29:37.878Z,984
2016-10-19T07:30:52.821Z,964
2016-10-19T07:31:37.933Z,968
2016-10-19T07:33:37.969Z,1100
2016-10-19T07:34:37.992Z,1140
2016-10-19T07:35:38.349Z,1180
2016-10-19T07:36:38.035Z,1220
2016-10-19T07:37:52.974Z,1268
2016-10-19T07:38:38.080Z,1300
2016-10-19T07:39:38.093Z,1328
2016-10-19T07:40:38.122Z,1360
2016-10-19T07:41:38.139Z,1380
2016-10-19T07:42:38.165Z,1380
2016-10-19T07:43:38.190Z,1368
2016-10-19T07:44:38.213Z,1388
2016-10-19T07:45:38.246Z,1392
2016-10-19T07:47:08.088Z,1400
2016-10-19T07:47:38.267Z,1400
2016-10-19T07:48:38.287Z,1380
2016-10-19T07:49:38.322Z,1360
2016-10-19T07:50:53.252Z,1296
2016-10-19T07:51:38.366Z,1280
2016-10-19T07:52:38.382Z,1248
2016-10-19T07:53:38.399Z,1204
2016-10-19T07:54:38.424Z,1176
2016-10-19T07:55:38.446Z,1140
2016-10-19T07:56:38.468Z,1064
2016-10-19T07:57:53.397Z,1000
2016-10-19T07:58:38.505Z,976
2016-10-19T07:59:53.441Z,1000
2016-10-19T08:00:38.545Z,1008
2016-10-19T08:01:53.523Z,1004
2016-10-19T08:02:38.595Z,1032
2016-10-19T08:03:38.622Z,1116
2016-10-19T08:04:38.633Z,1284
2016-10-19T08:05:38.659Z,1396
2016-10-19T08:06:38.676Z,1476
2016-10-19T08:07:38.694Z,1500
2016-10-19T08:08:38.725Z,1504
2016-10-19T08:09:38.751Z,1464
2016-10-19T08:10:38.773Z,1416
2016-10-19T08:11:38.794Z,1360
2016-10-19T08:12:38.811Z,1316
2016-10-19T08:13:39.081Z,1268
2016-10-19T08:14:38.850Z,1236
2016-10-19T08:15:38.908Z,1232
2016-10-19T08:16:38.886Z,1232
2016-10-19T08:17:38.915Z,1244
2016-10-19T08:18:38.935Z,1264
2016-10-19T08:19:38.957Z,1272
2016-10-19T08:21:39.000Z,1344
2016-10-19T08:22:39.276Z,1372
2016-10-19T08:23:39.039Z,1428
2016-10-19T08:24:39.062Z,1496
2016-10-19T08:25:39.099Z,1564
2016-10-19T08:26:39.102Z,1616
2016-10-19T08:27:39.135Z,1664
2016-10-19T08:28:54.108Z,1732
2016-10-19T08:29:39.170Z,1780
2016-10-19T08:30:39.192Z,1856
2016-10-19T08:31:39.218Z,1948
2016-10-19T08:32:39.271Z,2024
2016-10-19T08:33:54.179Z,2100
2016-10-19T08:34:39.276Z,2120
2016-10-19T08:35:39.296Z,2140
2016-10-19T08:36:54.240Z,2112
2016-10-19T08:37:39.641Z,2072
2016-10-19T08:38:39.359Z,2008
2016-10-19T08:39:54.348Z,1904
2016-10-19T08:40:54.322Z,1804
2016-10-19T08:41:39.467Z,1744
2016-10-19T08:42:54.363Z,1648
2016-10-19T08:43:39.884Z,1584
2016-10-19T08:44:39.488Z,1576
2016-10-19T08:45:39.519Z,1588
2016-10-19T08:46:39.539Z,1640
2016-10-19T08:48:39.573Z,1796
2016-10-19T08:49:54.519Z,1936
2016-10-19T08:50:39.622Z,2020
2016-10-19T08:51:39.647Z,2116
2016-10-19T08:52:54.585Z,2184
2016-10-19T08:53:39.685Z,2192
2016-10-19T08:55:39.726Z,2184
2016-10-19T08:56:39.748Z,2160
2016-10-19T08:57:39.774Z,2136
2016-10-19T08:58:40.043Z,2132
2016-10-19T08:59:39.816Z,2168
2016-10-19T09:00:39.844Z,2232
2016-10-19T09:01:39.856Z,2304
2016-10-19T09:02:54.804Z,2404
2016-10-19T09:03:39.912Z,2440
2016-10-19T09:04:39.920Z,2424
2016-10-19T09:05:54.859Z,2392
2016-10-19T09:06:39.975Z,2384
2016-10-19T09:07:39.990Z,2260
2016-10-19T09:08:40.018Z,2256
2016-10-19T09:09:40.024Z,2612
2016-10-19T09:10:40.252Z,2836
2016-10-19T09:11:40.075Z,3444
2016-10-19T09:12:40.098Z,3952
2016-10-19T09:13:40.121Z,4284
2016-10-19T09:14:40.150Z,4452
2016-10-19T09:15:40.157Z,4500
2016-10-19T09:16:40.184Z,4508
2016-10-19T09:17:40.199Z,4496
2016-10-19T09:18:40.233Z,4432
2016-10-19T09:19:40.243Z,4480
2016-10-19T09:20:55.191Z,4456
2016-10-19T09:21:55.458Z,4400
2016-10-19T09:22:40.564Z,4356
2016-10-19T09:23:40.349Z,4336
2016-10-19T09:25:55.299Z,4492
2016-10-19T09:27:40.722Z,4672
2016-10-19T09:28:55.375Z,4804
2016-10-19T09:29:40.477Z,4868
2016-10-19T09:30:40.529Z,4976
2016-10-19T09:31:40.512Z,5148
2016-10-19T09:32:55.451Z,5468
2016-10-19T09:33:40.608Z,5660
2016-10-19T09:34:40.576Z,5936
2016-10-19T09:36:55.548Z,6824
2016-10-19T09:37:40.647Z,7308
2016-10-19T09:38:40.675Z,7908
2016-10-19T09:39:40.696Z,8416
2016-10-19T09:40:55.632Z,9432
2016-10-19T09:41:40.746Z,8904
2016-10-19T09:42:55.719Z,9692
2016-10-19T09:43:40.777Z,10252
2016-10-19T09:44:40.803Z,10028
2016-10-19T09:45:40.827Z,10896
2016-10-19T09:46:40.844Z,10020
2016-10-19T09:47:40.871Z,9676
2016-10-19T09:48:40.888Z,9616
2016-10-19T09:49:40.924Z,9876
2016-10-19T09:50:40.941Z,10064
2016-10-19T09:51:40.969Z,10056
2016-10-19T09:52:40.991Z,9748
2016-10-19T09:53:41.310Z,9432
2016-10-19T09:54:41.033Z,9148
2016-10-19T09:55:55.973Z,9028
2016-10-19T09:56:41.081Z,8896
2016-10-19T09:57:41.106Z,8964
2016-10-19T09:58:41.136Z,8920
2016-10-19T09:59:56.071Z,8308
2016-10-19T10:00:41.468Z,8232
2016-10-19T10:01:41.196Z,8348
2016-10-19T10:02:41.527Z,8548
2016-10-19T10:03:56.160Z,8652
2016-10-19T10:04:41.265Z,8216
2016-10-19T10:05:41.287Z,8016
2016-10-19T10:06:41.314Z,7992
2016-10-19T10:07:41.339Z,7924
2016-10-19T10:08:56.276Z,7740
2016-10-19T10:09:41.371Z,7648
2016-10-19T10:10:41.414Z,7592
2016-10-19T10:11:41.432Z,7776
2016-10-19T10:12:41.453Z,7796
2016-10-19T10:13:41.466Z,7620
2016-10-19T10:14:41.500Z,7128
2016-10-19T10:15:41.516Z,6712
2016-10-19T10:16:41.587Z,6312
2016-10-19T10:17:41.579Z,6188
2016-10-19T10:18:41.598Z,6284
2016-10-19T10:19:41.613Z,6368
2016-10-19T10:20:41.640Z,6212
2016-10-19T10:21:56.586Z,6344
2016-10-19T10:22:41.688Z,6468
2016-10-19T10:23:41.703Z,6396
2016-10-19T10:24:56.650Z,6464
2016-10-19T10:25:41.756Z,6628
2016-10-19T10:26:41.813Z,6840
2016-10-19T10:27:41.797Z,6976
2016-10-19T10:28:41.827Z,7244
2016-10-19T10:29:41.854Z,7360
2016-10-19T10:30:57.092Z,7552
2016-10-19T10:31:41.902Z,7672
2016-10-19T10:32:42.162Z,7716
2016-10-19T10:33:41.942Z,7708
2016-10-19T10:34:41.966Z,7620
2016-10-19T10:35:41.997Z,7568
2016-10-19T10:36:42.015Z,7400
2016-10-19T10:37:42.042Z,7224
2016-10-19T10:38:42.063Z,7024
2016-10-19T10:39:42.084Z,6836
2016-10-19T10:40:57.038Z,6688
2016-10-19T10:41:42.143Z,6552
2016-10-19T10:42:42.155Z,6396
2016-10-19T10:43:42.180Z,6220
2016-10-19T10:44:42.200Z,6056
2016-10-19T10:45:42.232Z,5856
2016-10-19T10:46:42.249Z,5940
2016-10-19T10:47:42.272Z,6140
2016-10-19T10:48:42.293Z,6380
2016-10-19T10:49:42.320Z,6108
2016-10-19T10:50:42.352Z,5872
2016-10-19T10:51:42.373Z,5732
2016-10-19T10:52:42.392Z,5760
2016-10-19T10:54:42.434Z,5572
2016-10-19T10:55:42.457Z,5572
2016-10-19T10:56:57.401Z,5624
2016-10-19T10:57:42.500Z,5608
2016-10-19T10:58:42.535Z,5420
2016-10-19T10:59:42.555Z,5196
2016-10-19T11:00:42.579Z,5044
2016-10-19T11:01:42.604Z,4896
2016-10-19T11:02:42.623Z,4912
2016-10-19T11:03:42.647Z,5316
2016-10-19T11:04:42.676Z,5588
2016-10-19T11:05:42.697Z,6044
2016-10-19T11:06:42.722Z,6204
2016-10-19T11:07:42.749Z,6164
2016-10-19T11:08:57.683Z,5816
2016-10-19T11:09:42.791Z,5756
2016-10-19T11:10:42.813Z,5968
2016-10-19T11:11:57.755Z,6004
2016-10-19T11:13:42.886Z,6080
2016-10-19T11:14:42.911Z,6304
2016-10-19T11:16:57.876Z,6532
2016-10-19T11:17:42.979Z,6588
2016-10-19T11:18:57.926Z,6700
2016-10-19T11:19:57.953Z,6728
2016-10-19T11:20:43.052Z,6664
2016-10-19T11:21:43.078Z,6580
2016-10-19T11:22:43.103Z,6416
2016-10-19T11:23:58.040Z,6304
2016-10-19T11:24:43.157Z,6224
2016-10-19T11:25:43.175Z,6132
2016-10-19T11:26:43.193Z,6024
2016-10-19T11:27:43.221Z,5876
2016-10-19T11:28:43.239Z,5640
2016-10-19T11:29:43.283Z,5356
2016-10-19T11:30:43.299Z,5016
2016-10-19T11:31:43.321Z,4516
2016-10-19T11:32:43.337Z,4204
2016-10-19T11:33:43.368Z,4044
2016-10-19T11:34:43.383Z,3728
2016-10-19T11:35:58.331Z,3080
2016-10-19T11:36:43.437Z,2712
2016-10-19T11:37:43.704Z,2520
2016-10-19T11:38:43.483Z,2564
2016-10-19T11:39:43.508Z,2736
2016-10-19T11:40:43.535Z,2956
2016-10-19T11:41:43.552Z,3108
2016-10-19T11:42:43.573Z,3200
2016-10-19T11:43:58.517Z,3280
2016-10-19T11:44:43.630Z,3352
2016-10-19T11:45:43.647Z,3452
2016-10-19T11:46:43.664Z,3460
2016-10-19T11:47:43.699Z,3568
2016-10-19T11:48:58.634Z,3716
2016-10-19T11:49:43.748Z,3844
2016-10-19T11:50:58.686Z,3996
2016-10-19T11:51:43.783Z,3920
2016-10-19T11:52:43.807Z,3812
2016-10-19T11:53:43.844Z,3732
2016-10-19T11:54:43.891Z,3656
2016-10-19T11:55:43.920Z,3628
2016-10-19T11:56:44.149Z,3648
2016-10-19T11:57:43.967Z,3464
2016-10-19T11:58:43.949Z,3224
2016-10-19T11:59:58.892Z,3080
2016-10-19T12:00:43.992Z,3180
2016-10-19T12:01:44.022Z,3228
2016-10-19T12:02:44.050Z,3316
2016-10-19T12:04:44.091Z,3432
2016-10-19T12:05:44.121Z,3268
2016-10-19T12:06:44.141Z,3020
2016-10-19T12:07:44.166Z,2992
2016-10-19T12:08:44.186Z,3156
2016-10-19T12:09:44.209Z,3420
2016-10-19T12:10:44.237Z,3656
2016-10-19T12:11:44.257Z,3740
2016-10-19T12:12:44.273Z,3916
2016-10-19T12:13:44.304Z,4212
2016-10-19T12:14:44.319Z,4512
2016-10-19T12:15:59.267Z,4784
2016-10-19T12:16:44.365Z,4872
2016-10-19T12:17:44.392Z,4900
2016-10-19T12:18:44.425Z,4868
2016-10-19T12:19:44.481Z,4780
2016-10-19T12:20:44.460Z,4648
2016-10-19T12:21:44.491Z,4532
2016-10-19T12:22:44.517Z,4404
2016-10-19T12:23:44.540Z,4276
2016-10-19T12:24:44.554Z,4148
2016-10-19T12:25:44.586Z,3980
2016-10-19T12:26:59.523Z,3784
2016-10-19T12:27:44.630Z,3656
2016-10-19T12:28:44.659Z,3504
2016-10-19T12:29:44.680Z,3384
2016-10-19T12:30:44.697Z,3232
2016-10-19T12:31:59.645Z,2960
2016-10-19T12:32:44.779Z,2788
2016-10-19T12:33:44.773Z,2652
2016-10-19T12:34:44.792Z,2572
2016-10-19T12:35:45.066Z,2508
2016-10-19T12:37:44.903Z,2236
2016-10-19T12:39:44.917Z,2032
2016-10-19T12:40:44.964Z,1956
2016-10-19T12:41:44.973Z,1888
2016-10-19T12:42:44.982Z,1844
2016-10-19T12:43:59.925Z,1864
2016-10-19T12:44:45.040Z,1912
2016-10-19T12:45:45.053Z,2044
2016-10-19T12:47:00.003Z,2288
2016-10-19T12:47:45.107Z,2488
2016-10-19T12:48:45.136Z,2808
2016-10-19T12:49:45.148Z,4224
2016-10-19T12:50:45.180Z,3612
2016-10-19T12:51:45.206Z,3780
2016-10-19T12:52:45.226Z,4096
2016-10-19T12:53:45.255Z,4464
2016-10-19T12:55:00.188Z,4944
2016-10-19T12:55:45.297Z,5260
2016-10-19T12:56:45.315Z,5432
2016-10-19T12:57:45.339Z,5468
2016-10-19T12:58:45.369Z,5436
2016-10-19T12:59:45.383Z,5312
2016-10-19T13:00:45.402Z,4888
2016-10-19T13:01:45.437Z,4388
2016-10-19T13:02:45.455Z,3896
2016-10-19T13:03:45.480Z,3452
2016-10-19T13:05:45.526Z,2876
2016-10-19T13:06:45.811Z,2724
2016-10-19T13:07:45.581Z,2708
2016-10-19T13:09:00.516Z,2732
2016-10-19T13:09:45.640Z,2752
2016-10-19T13:10:45.906Z,2672
2016-10-19T13:12:00.590Z,2560
2016-10-19T13:12:45.695Z,2492
2016-10-19T13:14:00.636Z,2428
2016-10-19T13:14:45.797Z,2404
2016-10-19T13:15:45.764Z,2280
2016-10-19T13:16:45.789Z,2128
2016-10-19T13:17:45.814Z,1992
2016-10-19T13:19:00.760Z,1828
2016-10-19T13:19:45.856Z,1736
2016-10-19T13:20:45.913Z,1572
2016-10-19T13:21:45.905Z,1360
2016-10-19T13:23:00.847Z,1168
2016-10-19T13:23:45.951Z,1128
2016-10-19T13:24:45.975Z,1112
2016-10-19T13:26:00.915Z,1068
2016-10-19T13:26:46.091Z,1028
2016-10-19T13:27:46.044Z,1016
2016-10-19T13:28:46.377Z,1040
2016-10-19T13:29:46.091Z,1172
2016-10-19T13:30:46.112Z,1372
2016-10-19T13:31:46.142Z,1580
2016-10-19T13:32:46.452Z,1852
2016-10-19T13:33:46.181Z,2132
2016-10-19T13:35:01.129Z,3076
2016-10-19T13:35:46.228Z,3548
2016-10-19T13:36:46.260Z,3828
2016-10-19T13:37:46.274Z,3996
2016-10-19T13:38:46.305Z,4196
2016-10-19T13:39:46.313Z,4284
2016-10-19T13:40:46.402Z,4400
2016-10-19T13:41:46.365Z,4444
2016-10-19T13:43:46.414Z,4556
2016-10-19T13:44:46.439Z,3972
2016-10-19T13:45:46.467Z,4168
2016-10-19T13:46:46.485Z,4292
2016-10-19T13:48:01.427Z,4360
2016-10-19T13:49:01.452Z,4640
2016-10-19T13:49:46.564Z,4672
2016-10-19T13:51:01.532Z,4608
2016-10-19T13:51:46.606Z,4508
2016-10-19T13:53:01.541Z,4220
2016-10-19T13:53:46.642Z,4020
2016-10-19T13:54:46.669Z,4004
2016-10-19T13:56:46.713Z,4140
2016-10-19T13:57:46.776Z,4036
2016-10-19T13:58:47.113Z,4364
2016-10-19T14:01:46.825Z,4360
2016-10-19T14:02:46.848Z,4256
2016-10-19T14:03:46.875Z,4196
2016-10-19T14:04:46.897Z,4156
2016-10-19T14:05:46.917Z,4052
2016-10-19T14:07:02.161Z,3984
2016-10-19T14:07:46.967Z,3936
2016-10-19T14:08:46.992Z,3756
2016-10-19T14:09:47.008Z,3056
2016-10-19T14:10:47.037Z,2588
2016-10-19T14:11:47.062Z,2548
2016-10-19T14:12:47.080Z,2508
2016-10-19T14:13:47.148Z,2508
2016-10-19T14:14:47.164Z,2408
2016-10-19T14:15:47.158Z,2344
2016-10-19T14:16:47.174Z,2348
2016-10-19T14:18:02.409Z,2340
2016-10-19T14:19:02.177Z,2296
2016-10-19T14:19:47.245Z,2276
2016-10-19T14:20:47.261Z,2272
2016-10-19T14:22:02.210Z,2348
2016-10-19T14:22:47.315Z,2344
2016-10-19T14:23:47.334Z,2344
2016-10-19T14:24:47.355Z,2352
2016-10-19T14:26:02.295Z,2644
2016-10-19T14:26:47.405Z,3096
2016-10-19T14:27:47.423Z,2612
2016-10-19T14:28:47.462Z,2556
2016-10-19T14:29:47.469Z,2980
2016-10-19T14:30:47.499Z,3368
2016-10-19T14:31:47.517Z,3340
2016-10-19T14:33:02.563Z,2756
2016-10-19T14:33:47.825Z,3096
2016-10-19T14:34:47.579Z,2504
2016-10-19T14:35:47.618Z,2512
2016-10-19T14:36:47.630Z,2548
2016-10-19T14:37:47.667Z,2608
2016-10-19T14:38:47.673Z,2656
2016-10-19T14:39:47.700Z,2516